createdAt,value
2018-05-03T00:01:36.038Z,7.50
2018-05-03T00:04:04.312Z,9.13
2018-05-03T00:06:32.582Z,8.47
2018-05-03T00:09:00.855Z,5.77
2018-05-03T00:11:29.128Z,7.33
2018-05-03T00:13:57.405Z,7.30
2018-05-03T00:16:25.682Z,10.47
2018-05-03T00:18:53.959Z,6.43
2018-05-03T00:21:22.233Z,7.40
2018-05-03T00:23:50.510Z,8.13
2018-05-03T00:26:19.111Z,6.33
2018-05-03T00:28:47.382Z,5.23
2018-05-03T00:31:15.655Z,6.23
2018-05-03T00:33:43.938Z,6.33
2018-05-03T00:36:12.205Z,5.70
2018-05-03T00:38:40.495Z,7.63
2018-05-03T00:41:08.773Z,7.17
2018-05-03T00:43:37.040Z,8.73
2018-05-03T00:46:05.315Z,7.80
2018-05-03T00:48:33.588Z,7.03
2018-05-03T00:51:01.874Z,10.67
2018-05-03T00:53:30.147Z,6.20
2018-05-03T00:55:58.422Z,7.10
2018-05-03T00:58:26.698Z,6.13
2018-05-03T01:00:54.966Z,7.63
2018-05-03T01:03:23.254Z,9.90
2018-05-03T01:05:51.525Z,7.87
2018-05-03T01:08:19.799Z,8.80
2018-05-03T01:10:48.081Z,8.37
2018-05-03T01:13:16.354Z,7.10
2018-05-03T01:15:44.650Z,7.27
2018-05-03T01:18:12.919Z,8.77
2018-05-03T01:20:41.187Z,5.53
2018-05-03T01:23:09.462Z,6.87
2018-05-03T01:25:37.742Z,6.60
2018-05-03T01:28:06.061Z,5.10
2018-05-03T01:30:34.337Z,5.03
2018-05-03T01:33:02.609Z,6.83
2018-05-03T01:35:42.653Z,5.93
2018-05-03T01:38:11.092Z,6.80
2018-05-03T01:40:39.374Z,8.10
2018-05-03T01:43:07.650Z,6.50
2018-05-03T01:45:35.938Z,9.53
2018-05-03T01:48:04.210Z,9.20
2018-05-03T01:50:32.491Z,6.93
2018-05-03T01:53:00.778Z,7.20
2018-05-03T01:55:29.042Z,7.10
2018-05-03T01:57:57.689Z,6.27
2018-05-03T02:00:25.964Z,6.73
2018-05-03T02:02:54.239Z,6.00
2018-05-03T02:05:22.530Z,5.10
2018-05-03T02:07:50.803Z,6.97
2018-05-03T02:10:19.099Z,5.70
2018-05-03T02:12:47.379Z,4.40
2018-05-03T02:15:15.650Z,5.07
2018-05-03T02:17:43.943Z,4.13
2018-05-03T02:20:12.234Z,6.43
2018-05-03T02:22:40.506Z,7.00
2018-05-03T02:25:08.808Z,7.50
2018-05-03T02:27:37.079Z,7.40
2018-05-03T02:30:05.350Z,6.97
2018-05-03T02:32:33.626Z,4.67
2018-05-03T02:35:01.906Z,5.33
2018-05-03T02:37:30.193Z,4.40
2018-05-03T02:39:58.478Z,4.57
2018-05-03T02:42:26.755Z,7.23
2018-05-03T02:44:55.030Z,4.70
2018-05-03T02:47:23.302Z,5.10
2018-05-03T02:49:51.590Z,5.97
2018-05-03T02:52:19.875Z,6.53
2018-05-03T02:54:48.150Z,6.13
2018-05-03T02:57:28.331Z,5.53
2018-05-03T03:00:08.474Z,4.90
2018-05-03T03:02:54.263Z,8.03
2018-05-03T03:05:40.155Z,5.17
2018-05-03T03:11:34.783Z,4.43
2018-05-03T03:17:57.972Z,6.67
2018-05-03T03:20:54.430Z,7.53
2018-05-03T03:23:40.415Z,4.93
2018-05-03T03:29:41.757Z,5.10
2018-05-03T03:32:21.862Z,4.43
2018-05-03T03:34:56.543Z,6.87
2018-05-03T03:37:36.518Z,6.57
2018-05-03T03:40:22.420Z,6.77
2018-05-03T03:43:05.570Z,5.20
2018-05-03T03:45:33.835Z,7.50
2018-05-03T03:48:02.102Z,6.87
2018-05-03T03:50:30.386Z,5.50
2018-05-03T03:52:58.654Z,6.80
2018-05-03T03:55:26.933Z,4.60
2018-05-03T03:57:55.219Z,5.37
2018-05-03T04:00:23.490Z,5.37
2018-05-03T04:02:51.776Z,7.87
2018-05-03T04:05:20.054Z,4.43
2018-05-03T04:07:48.330Z,4.77
2018-05-03T04:10:16.619Z,4.30
2018-05-03T04:12:44.886Z,7.13
2018-05-03T04:15:13.210Z,6.97
2018-05-03T04:17:53.219Z,5.10
2018-05-03T04:20:40.013Z,5.77
2018-05-03T04:26:19.198Z,6.70
2018-05-03T04:28:47.483Z,6.60
2018-05-03T04:31:15.767Z,6.50
2018-05-03T04:33:44.038Z,5.13
2018-05-03T04:36:12.318Z,7.67
2018-05-03T04:38:40.627Z,6.27
2018-05-03T04:41:08.896Z,6.00
2018-05-03T04:43:37.191Z,6.70
2018-05-03T04:46:05.490Z,12.47
2018-05-03T04:48:33.758Z,8.40
2018-05-03T04:51:02.052Z,9.03
2018-05-03T04:53:30.327Z,9.87
2018-05-03T04:55:58.624Z,7.23
2018-05-03T04:58:26.918Z,6.53
2018-05-03T05:00:55.194Z,10.60
2018-05-03T05:03:23.538Z,6.97
2018-05-03T05:05:51.817Z,8.30
2018-05-03T05:08:20.106Z,8.73
2018-05-03T05:10:48.374Z,9.00
2018-05-03T05:13:16.662Z,6.43
2018-05-03T05:15:44.937Z,9.17
2018-05-03T05:18:13.215Z,13.60
2018-05-03T05:20:41.752Z,12.60
2018-05-03T05:23:10.030Z,15.43
2018-05-03T05:25:38.354Z,14.07
2018-05-03T05:28:06.652Z,14.33
2018-05-03T05:30:34.995Z,17.00
2018-05-03T05:33:03.244Z,15.27
2018-05-03T05:35:31.518Z,12.13
2018-05-03T05:37:59.796Z,14.00
2018-05-03T05:40:28.086Z,15.63
2018-05-03T05:42:56.474Z,16.43
2018-05-03T05:45:24.762Z,16.17
2018-05-03T05:47:53.045Z,12.83
2018-05-03T05:50:21.583Z,9.33
2018-05-03T05:52:49.862Z,16.30
2018-05-03T05:55:18.150Z,14.93
2018-05-03T05:57:46.430Z,10.00
2018-05-03T06:00:14.730Z,12.60
2018-05-03T06:02:43.014Z,11.17
2018-05-03T06:05:11.298Z,11.57
2018-05-03T06:07:39.575Z,12.23
2018-05-03T06:10:07.867Z,10.17
2018-05-03T06:12:36.143Z,11.87
2018-05-03T06:15:04.437Z,11.57
2018-05-03T06:17:32.714Z,8.77
2018-05-03T06:20:00.990Z,8.90
2018-05-03T06:22:29.286Z,13.73
2018-05-03T06:24:57.570Z,11.73
2018-05-03T06:27:26.791Z,12.30
2018-05-03T06:29:55.062Z,14.10
2018-05-03T06:32:23.333Z,9.50
2018-05-03T06:34:51.626Z,11.20
2018-05-03T06:37:19.911Z,9.90
2018-05-03T06:39:48.591Z,11.07
2018-05-03T06:42:16.855Z,10.57
2018-05-03T06:44:45.130Z,13.83
2018-05-03T06:47:13.426Z,12.60
2018-05-03T06:49:41.706Z,11.30
2018-05-03T06:52:10.210Z,12.53
2018-05-03T06:54:38.503Z,13.63
2018-05-03T06:57:06.785Z,10.13
2018-05-03T06:59:35.068Z,13.27
2018-05-03T07:02:03.346Z,10.77
2018-05-03T07:04:31.762Z,10.83
2018-05-03T07:06:59.993Z,8.30
2018-05-03T07:09:28.267Z,11.63
2018-05-03T07:11:56.551Z,15.00
2018-05-03T07:14:24.826Z,12.07
2018-05-03T07:16:53.122Z,7.73
2018-05-03T07:19:21.393Z,11.27
2018-05-03T07:21:49.684Z,9.77
2018-05-03T07:24:17.959Z,8.70
2018-05-03T07:26:46.217Z,14.40
2018-05-03T07:29:14.506Z,12.20
2018-05-03T07:34:40.006Z,11.27
2018-05-03T07:37:08.279Z,12.63
2018-05-03T07:39:36.559Z,11.27
2018-05-03T07:42:04.841Z,10.83
2018-05-03T07:44:33.113Z,8.30
2018-05-03T07:47:01.398Z,10.83
2018-05-03T07:49:29.675Z,10.70
2018-05-03T07:51:57.941Z,8.33
2018-05-03T07:54:26.220Z,11.67
2018-05-03T07:56:54.493Z,9.37
2018-05-03T07:59:22.801Z,13.53
2018-05-03T08:01:51.073Z,7.37
2018-05-03T08:04:19.372Z,9.80
2018-05-03T08:06:47.634Z,8.23
2018-05-03T08:09:15.898Z,18.80
2018-05-03T08:11:44.543Z,9.83
2018-05-03T08:14:12.815Z,10.33
2018-05-03T08:16:41.114Z,7.97
2018-05-03T08:19:09.393Z,11.73
2018-05-03T08:21:37.658Z,8.60
2018-05-03T08:24:06.301Z,9.83
2018-05-03T08:26:34.574Z,8.37
2018-05-03T08:29:02.846Z,14.80
2018-05-03T08:31:31.128Z,11.33
2018-05-03T08:33:59.405Z,13.67
2018-05-03T08:36:28.040Z,11.83
2018-05-03T08:38:56.318Z,9.10
2018-05-03T08:41:24.593Z,9.27
2018-05-03T08:43:52.873Z,9.53
2018-05-03T08:46:21.144Z,8.60
2018-05-03T08:48:49.426Z,8.53
2018-05-03T08:51:17.699Z,11.90
2018-05-03T08:53:45.974Z,15.70
2018-05-03T08:56:14.263Z,7.17
2018-05-03T08:58:42.537Z,10.10
2018-05-03T09:01:10.835Z,11.73
2018-05-03T09:03:39.126Z,6.87
2018-05-03T09:06:07.409Z,18.13
2018-05-03T09:08:35.685Z,12.23
2018-05-03T09:11:03.961Z,10.23
2018-05-03T09:13:32.262Z,6.10
2018-05-03T09:16:00.530Z,10.60
2018-05-03T09:18:28.803Z,13.40
2018-05-03T09:20:57.082Z,8.27
2018-05-03T09:23:25.354Z,10.27
2018-05-03T09:25:53.637Z,9.67
2018-05-03T09:28:21.906Z,7.57
2018-05-03T09:30:50.174Z,9.47
2018-05-03T09:33:18.445Z,10.07
2018-05-03T09:35:46.714Z,8.40
2018-05-03T09:38:14.996Z,7.27
2018-05-03T09:40:43.262Z,6.40
2018-05-03T09:43:11.530Z,9.00
2018-05-03T09:45:39.814Z,13.23
2018-05-03T09:48:08.087Z,9.23
2018-05-03T09:50:36.371Z,12.50
2018-05-03T09:53:04.757Z,9.90
2018-05-03T09:55:33.017Z,10.80
2018-05-03T09:58:01.302Z,7.33
2018-05-03T10:00:29.571Z,7.60
2018-05-03T10:02:57.854Z,9.37
2018-05-03T10:05:26.137Z,10.43
2018-05-03T10:07:54.403Z,9.33
2018-05-03T10:10:22.676Z,9.30
2018-05-03T10:12:50.941Z,8.50
2018-05-03T10:15:19.229Z,10.53
2018-05-03T10:17:47.525Z,11.50
2018-05-03T10:20:15.801Z,10.03
2018-05-03T10:22:44.077Z,7.43
2018-05-03T10:25:12.353Z,9.30
2018-05-03T10:27:40.933Z,10.53
2018-05-03T10:30:09.296Z,8.23
2018-05-03T10:32:37.486Z,9.00
2018-05-03T10:35:05.762Z,13.63
2018-05-03T10:37:34.043Z,11.67
2018-05-03T10:40:02.354Z,16.00
2018-05-03T10:42:30.625Z,9.40
2018-05-03T10:44:58.905Z,11.77
2018-05-03T10:47:27.207Z,7.50
2018-05-03T10:49:55.492Z,11.07
2018-05-03T10:52:24.046Z,10.33
2018-05-03T10:54:52.326Z,9.47
2018-05-03T10:57:20.589Z,9.10
2018-05-03T10:59:48.890Z,7.70
2018-05-03T11:02:17.162Z,11.83
2018-05-03T11:04:45.701Z,11.10
2018-05-03T11:07:13.989Z,11.33
2018-05-03T11:09:42.263Z,9.53
2018-05-03T11:12:11.550Z,11.90
2018-05-03T11:14:39.814Z,7.97
2018-05-03T11:17:08.103Z,10.30
2018-05-03T11:19:36.377Z,9.00
2018-05-03T11:22:04.652Z,12.77
2018-05-03T11:24:32.926Z,8.63
2018-05-03T11:27:01.194Z,8.40
2018-05-03T11:29:29.469Z,7.80
2018-05-03T11:31:57.748Z,14.80
2018-05-03T11:34:27.990Z,9.20
2018-05-03T11:36:56.285Z,11.57
2018-05-03T11:39:24.545Z,14.03
2018-05-03T11:41:52.830Z,8.30
2018-05-03T11:44:21.102Z,11.47
2018-05-03T11:46:49.438Z,8.43
2018-05-03T11:49:17.729Z,13.67
2018-05-03T11:51:46.008Z,11.47
2018-05-03T11:54:14.310Z,10.60
2018-05-03T11:56:42.585Z,11.03
2018-05-03T11:59:10.883Z,7.37
2018-05-03T12:01:39.129Z,10.67
2018-05-03T12:04:07.456Z,10.43
2018-05-03T12:06:35.793Z,12.40
2018-05-03T12:09:04.074Z,9.70
2018-05-03T12:11:32.342Z,9.37
2018-05-03T12:14:00.646Z,9.77
2018-05-03T12:16:28.938Z,9.77
2018-05-03T12:18:57.252Z,10.83
2018-05-03T12:21:25.523Z,8.57
2018-05-03T12:23:53.788Z,8.00
2018-05-03T12:26:22.077Z,9.70
2018-05-03T12:28:50.351Z,13.97
2018-05-03T12:31:18.650Z,9.87
2018-05-03T12:33:46.922Z,9.27
2018-05-03T12:36:15.192Z,7.43
2018-05-03T12:38:43.461Z,9.50
2018-05-03T12:41:11.734Z,9.43
2018-05-03T12:43:40.318Z,6.40
2018-05-03T12:46:08.594Z,8.83
2018-05-03T12:48:36.878Z,12.70
2018-05-03T12:51:05.158Z,6.37
2018-05-03T12:53:33.449Z,8.67
2018-05-03T12:56:01.801Z,10.77
2018-05-03T12:58:30.137Z,9.63
2018-05-03T13:00:58.437Z,7.60
2018-05-03T13:03:26.758Z,6.17
2018-05-03T13:05:55.026Z,5.87
2018-05-03T13:08:23.297Z,6.97
2018-05-03T13:10:51.578Z,7.10
2018-05-03T13:13:19.872Z,6.00
2018-05-03T13:15:48.142Z,6.77
2018-05-03T13:18:16.459Z,5.30
2018-05-03T13:20:44.738Z,6.97
2018-05-03T13:23:13.181Z,4.20
2018-05-03T13:25:41.461Z,5.00
2018-05-03T13:28:09.734Z,9.63
2018-05-03T13:30:38.002Z,7.07
2018-05-03T13:33:06.289Z,9.30
2018-05-03T13:35:34.556Z,9.40
2018-05-03T13:38:02.834Z,7.73
2018-05-03T13:40:31.119Z,8.87
2018-05-03T13:42:59.393Z,10.77
2018-05-03T13:45:27.674Z,9.13
2018-05-03T13:47:55.965Z,8.67
2018-05-03T13:50:24.257Z,9.70
2018-05-03T13:52:52.534Z,12.40
2018-05-03T13:55:20.838Z,9.50
2018-05-03T13:57:54.830Z,11.13
2018-05-03T14:00:23.117Z,9.53
2018-05-03T14:02:51.394Z,9.00
2018-05-03T14:05:19.674Z,9.80
2018-05-03T14:07:48.198Z,9.17
2018-05-03T14:10:16.470Z,7.80
2018-05-03T14:12:44.737Z,9.17
2018-05-03T14:15:13.174Z,7.97
2018-05-03T14:17:41.447Z,7.70
2018-05-03T14:20:09.709Z,9.73
2018-05-03T14:22:38.194Z,5.87
2018-05-03T14:25:06.434Z,9.67
2018-05-03T14:27:34.721Z,14.00
2018-05-03T14:30:03.002Z,8.83
2018-05-03T14:32:31.273Z,10.57
2018-05-03T14:34:59.542Z,7.07
2018-05-03T14:37:27.856Z,7.53
2018-05-03T14:39:56.130Z,9.00
2018-05-03T14:42:24.393Z,8.70
2018-05-03T14:44:52.919Z,8.77
2018-05-03T14:47:21.267Z,9.43
2018-05-03T14:49:51.413Z,6.67
2018-05-03T14:52:20.051Z,8.37
2018-05-03T14:54:48.314Z,9.23
2018-05-03T14:57:17.509Z,9.33
2018-05-03T14:59:45.806Z,6.47
2018-05-03T15:02:14.083Z,9.20
2018-05-03T15:04:42.353Z,11.23
2018-05-03T15:07:10.643Z,13.93
2018-05-03T15:09:40.898Z,8.47
2018-05-03T15:12:10.120Z,8.53
2018-05-03T15:14:39.102Z,9.77
2018-05-03T15:17:07.376Z,5.70
2018-05-03T15:19:35.703Z,8.00
2018-05-03T15:22:03.961Z,10.17
2018-05-03T15:24:33.202Z,6.50
2018-05-03T15:27:01.503Z,5.07
2018-05-03T15:29:29.761Z,5.83
2018-05-03T15:31:58.041Z,6.17
2018-05-03T15:34:26.325Z,6.77
2018-05-03T15:36:54.594Z,6.47
2018-05-03T15:39:22.905Z,7.10
2018-05-03T15:41:51.178Z,7.10
2018-05-03T15:44:19.453Z,9.63
2018-05-03T15:46:47.722Z,8.13
2018-05-03T15:49:16.011Z,5.57
2018-05-03T15:51:44.321Z,11.70
2018-05-03T15:54:27.417Z,8.70
2018-05-03T15:56:55.685Z,5.47
2018-05-03T15:59:23.958Z,9.90
2018-05-03T16:01:52.258Z,9.13
2018-05-03T16:04:20.534Z,8.00
2018-05-03T16:06:48.818Z,9.20
2018-05-03T16:09:17.130Z,10.73
2018-05-03T16:11:45.440Z,8.00
2018-05-03T16:14:13.721Z,6.83
2018-05-03T16:16:41.989Z,5.63
2018-05-03T16:19:10.265Z,12.13
2018-05-03T16:21:38.563Z,8.03
2018-05-03T16:24:06.835Z,8.00
2018-05-03T16:26:35.122Z,8.27
2018-05-03T16:29:04.377Z,6.80
2018-05-03T16:31:32.642Z,5.60
2018-05-03T16:34:00.926Z,6.47
2018-05-03T16:36:29.193Z,6.70
2018-05-03T16:38:57.490Z,5.43
2018-05-03T16:41:25.766Z,9.07
2018-05-03T16:43:54.037Z,4.77
2018-05-03T16:46:22.315Z,5.80
2018-05-03T16:48:50.588Z,6.10
2018-05-03T16:51:19.213Z,6.87
2018-05-03T16:56:47.325Z,7.53
2018-05-03T16:59:15.671Z,6.60
2018-05-03T17:01:43.906Z,6.33
2018-05-03T17:04:12.185Z,5.13
2018-05-03T17:06:40.461Z,6.07
2018-05-03T17:09:09.011Z,6.77
2018-05-03T17:11:37.280Z,12.40
2018-05-03T17:14:05.594Z,9.00
2018-05-03T17:16:33.833Z,6.73
2018-05-03T17:19:02.121Z,9.33
2018-05-03T17:21:30.394Z,9.30
2018-05-03T17:23:58.660Z,6.80
2018-05-03T17:26:26.936Z,9.90
2018-05-03T17:28:55.405Z,5.57
2018-05-03T17:31:23.679Z,6.67
2018-05-03T17:33:52.032Z,8.20
2018-05-03T17:36:20.277Z,8.20
2018-05-03T17:38:48.555Z,6.57
2018-05-03T17:41:16.828Z,5.73
2018-05-03T17:43:45.098Z,8.10
2018-05-03T17:46:13.414Z,8.73
2018-05-03T17:48:41.701Z,12.17
2018-05-03T17:51:10.041Z,5.33
2018-05-03T17:53:38.266Z,7.13
2018-05-03T17:56:06.541Z,6.10
2018-05-03T17:58:34.829Z,7.23
2018-05-03T18:01:03.098Z,7.03
2018-05-03T18:03:31.372Z,7.67
2018-05-03T18:05:59.664Z,7.40
2018-05-03T18:08:27.937Z,5.23
2018-05-03T18:10:56.230Z,8.10
2018-05-03T18:13:24.498Z,7.93
2018-05-03T18:15:52.772Z,5.77
2018-05-03T18:18:21.058Z,7.23
2018-05-03T18:20:49.341Z,5.43
2018-05-03T18:23:17.658Z,5.77
2018-05-03T18:25:45.930Z,9.70
2018-05-03T18:28:14.225Z,6.33
2018-05-03T18:30:42.505Z,4.93
2018-05-03T18:33:10.789Z,7.47
2018-05-03T18:35:39.077Z,5.47
2018-05-03T18:38:07.407Z,2.83
2018-05-03T18:40:35.630Z,3.83
2018-05-03T18:43:03.913Z,5.27
2018-05-03T18:45:32.206Z,5.30
2018-05-03T18:48:00.501Z,4.90
2018-05-03T18:50:28.777Z,7.37
2018-05-03T18:52:57.049Z,5.77
2018-05-03T18:55:25.325Z,6.27
2018-05-03T18:57:53.594Z,4.50
2018-05-03T19:00:21.882Z,5.00
2018-05-03T19:02:50.142Z,6.60
2018-05-03T19:05:18.421Z,4.93
2018-05-03T19:07:46.721Z,4.80
2018-05-03T19:10:15.043Z,6.97
2018-05-03T19:12:43.289Z,7.70
2018-05-03T19:15:11.562Z,4.67
2018-05-03T19:17:39.837Z,5.50
2018-05-03T19:20:08.119Z,3.40
2018-05-03T19:22:36.385Z,6.33
2018-05-03T19:25:04.673Z,5.93
2018-05-03T19:27:32.941Z,8.07
2018-05-03T19:30:01.211Z,7.80
2018-05-03T19:32:29.489Z,5.17
2018-05-03T19:34:57.762Z,5.13
2018-05-03T19:37:26.038Z,4.30
2018-05-03T19:39:54.309Z,4.87
2018-05-03T19:42:22.597Z,3.57
2018-05-03T19:44:50.917Z,3.03
2018-05-03T19:47:19.168Z,3.80
2018-05-03T19:49:47.466Z,3.17
2018-05-03T19:52:15.741Z,4.33
2018-05-03T19:54:44.018Z,6.03
2018-05-03T19:57:12.299Z,4.50
2018-05-03T19:59:40.569Z,2.70
2018-05-03T20:02:08.849Z,5.43
2018-05-03T20:04:37.125Z,5.43
2018-05-03T20:07:05.401Z,6.03
2018-05-03T20:09:33.693Z,5.77
2018-05-03T20:12:01.963Z,7.90
2018-05-03T20:14:38.022Z,5.93
2018-05-03T20:17:06.299Z,6.47
2018-05-03T20:19:34.573Z,4.63
2018-05-03T20:22:02.986Z,7.47
2018-05-03T20:24:31.234Z,8.67
2018-05-03T20:26:59.563Z,4.90
2018-05-03T20:29:27.831Z,4.93
2018-05-03T20:31:56.102Z,5.23
2018-05-03T20:34:24.366Z,6.67
2018-05-03T20:36:53.638Z,5.33
2018-05-03T20:39:22.054Z,7.87
2018-05-03T20:41:50.344Z,5.80
2018-05-03T20:44:18.774Z,4.63
2018-05-03T20:46:47.048Z,4.73
2018-05-03T20:49:15.333Z,6.23
2018-05-03T20:51:43.602Z,4.93
2018-05-03T20:54:11.886Z,5.00
2018-05-03T20:56:40.158Z,6.37
2018-05-03T20:59:08.443Z,10.03
2018-05-03T21:01:36.726Z,5.27
2018-05-03T21:04:05.025Z,7.80
2018-05-03T21:06:33.330Z,6.07
2018-05-03T21:09:01.624Z,6.93
2018-05-03T21:11:35.879Z,11.90
2018-05-03T21:14:04.154Z,7.10
2018-05-03T21:16:32.424Z,5.83
2018-05-03T21:19:00.733Z,5.40
2018-05-03T21:21:29.005Z,5.83
2018-05-03T21:23:57.319Z,6.27
2018-05-03T21:26:25.607Z,9.03
2018-05-03T21:28:53.862Z,4.80
2018-05-03T21:31:22.137Z,3.30
2018-05-03T21:33:50.419Z,8.23
2018-05-03T21:36:18.709Z,4.97
2018-05-03T21:38:47.004Z,4.73
2018-05-03T21:41:16.238Z,5.77
2018-05-03T21:43:44.506Z,8.33
2018-05-03T21:46:12.797Z,7.43
2018-05-03T21:48:41.073Z,4.97
2018-05-03T21:51:10.142Z,5.53
2018-05-03T21:53:38.435Z,6.80
2018-05-03T21:56:06.719Z,7.77
2018-05-03T21:58:35.003Z,5.97
2018-05-03T22:01:03.332Z,6.77
2018-05-03T22:03:31.610Z,5.63
2018-05-03T22:05:59.896Z,6.03
2018-05-03T22:08:28.174Z,5.23
2018-05-03T22:10:56.446Z,6.83
2018-05-03T22:13:24.713Z,6.07
2018-05-03T22:15:52.994Z,6.73
2018-05-03T22:18:21.266Z,7.33
2018-05-03T22:20:49.561Z,5.73
2018-05-03T22:23:17.821Z,7.27
2018-05-03T22:25:46.093Z,3.40
2018-05-03T22:28:14.377Z,4.60
2018-05-03T22:30:49.510Z,5.93
2018-05-03T22:33:17.788Z,5.53
2018-05-03T22:35:46.061Z,7.17
2018-05-03T22:38:14.645Z,6.20
2018-05-03T22:40:42.975Z,4.87
2018-05-03T22:43:11.211Z,6.10
2018-05-03T22:45:39.505Z,4.07
2018-05-03T22:48:07.794Z,4.77
2018-05-03T22:50:36.071Z,6.77
2018-05-03T22:53:04.359Z,5.20
2018-05-03T22:55:32.651Z,5.80
2018-05-03T22:58:00.921Z,4.27
2018-05-03T23:00:29.193Z,6.67
2018-05-03T23:02:57.470Z,4.10
2018-05-03T23:05:25.737Z,8.57
2018-05-03T23:07:54.023Z,3.90
2018-05-03T23:10:22.289Z,5.97
2018-05-03T23:12:50.582Z,5.63
2018-05-03T23:15:18.856Z,6.43
2018-05-03T23:17:47.141Z,3.73
2018-05-03T23:20:15.416Z,5.13
2018-05-03T23:22:43.685Z,5.77
2018-05-03T23:25:11.968Z,6.13
2018-05-03T23:27:40.237Z,6.70
2018-05-03T23:30:08.507Z,9.17
2018-05-03T23:32:36.791Z,5.70
2018-05-03T23:35:05.053Z,6.03
2018-05-03T23:37:33.333Z,5.23
2018-05-03T23:40:01.611Z,6.70
2018-05-03T23:42:29.877Z,6.73
2018-05-03T23:44:58.153Z,5.37
2018-05-03T23:47:26.440Z,6.20
2018-05-03T23:49:54.719Z,9.70
2018-05-03T23:52:22.990Z,10.50
2018-05-03T23:54:51.262Z,6.37
2018-05-03T23:57:19.544Z,11.43
2018-05-03T23:59:47.814Z,7.70
